createdAt,value
2023-04-03T00:00:33.301Z,104.91
2023-04-03T00:01:33.153Z,104.03
2023-04-03T00:02:33.171Z,104.72
2023-04-03T00:03:33.169Z,104.36
2023-04-03T00:04:33.865Z,103.41
2023-04-03T00:05:33.347Z,103.53
2023-04-03T00:06:33.221Z,102.95
2023-04-03T00:07:33.256Z,104.70
2023-04-03T00:08:33.249Z,105.00
2023-04-03T00:09:33.342Z,102.53
2023-04-03T00:10:33.342Z,103.47
2023-04-03T00:11:33.343Z,102.61
2023-04-03T00:12:33.398Z,101.37
2023-04-03T00:13:33.467Z,104.06
2023-04-03T00:14:33.419Z,100.38
2023-04-03T00:15:33.595Z,104.72
2023-04-03T00:16:33.516Z,102.90
2023-04-03T00:17:33.504Z,104.61
2023-04-03T00:18:33.545Z,101.94
2023-04-03T00:19:33.557Z,103.61
2023-04-03T00:20:33.626Z,100.09
2023-04-03T00:21:33.593Z,105.57
2023-04-03T00:22:33.678Z,103.24
2023-04-03T00:23:33.764Z,101.59
2023-04-03T00:24:33.684Z,102.01
2023-04-03T00:25:33.752Z,103.99
2023-04-03T00:26:33.761Z,102.89
2023-04-03T00:27:33.768Z,104.33
2023-04-03T00:28:33.781Z,100.96
2023-04-03T00:29:33.828Z,101.14
2023-04-03T00:30:33.821Z,101.20
2023-04-03T00:31:34.390Z,103.48
2023-04-03T00:32:34.418Z,101.33
2023-04-03T00:33:33.953Z,102.22
2023-04-03T00:34:33.923Z,103.61
2023-04-03T00:35:33.974Z,102.45
2023-04-03T00:36:35.043Z,101.15
2023-04-03T00:37:34.142Z,99.78
2023-04-03T00:38:34.078Z,106.00
2023-04-03T00:39:34.090Z,103.34
2023-04-03T00:40:34.352Z,105.43
2023-04-03T00:41:34.177Z,101.28
2023-04-03T00:42:34.153Z,102.52
2023-04-03T00:43:34.214Z,103.87
2023-04-03T00:44:34.257Z,99.89
2023-04-03T00:45:34.237Z,103.24
2023-04-03T00:46:34.300Z,102.14
2023-04-03T00:47:34.462Z,100.33
2023-04-03T00:48:34.410Z,105.41
2023-04-03T00:49:34.444Z,100.47
2023-04-03T00:50:34.593Z,106.82
2023-04-03T00:51:34.433Z,103.78
2023-04-03T00:52:34.451Z,101.94
2023-04-03T00:53:34.502Z,100.78
2023-04-03T00:54:34.577Z,102.77
2023-04-03T00:55:34.569Z,104.76
2023-04-03T00:56:34.593Z,99.98
2023-04-03T00:57:34.717Z,100.71
2023-04-03T00:58:34.703Z,99.30
2023-04-03T00:59:34.716Z,98.71
2023-04-03T01:00:34.994Z,103.36
2023-04-03T01:01:34.772Z,103.94
2023-04-03T01:02:34.787Z,100.28
2023-04-03T01:03:34.747Z,101.05
2023-04-03T01:04:34.833Z,100.63
2023-04-03T01:05:34.807Z,103.08
2023-04-03T01:06:34.878Z,99.36
2023-04-03T01:07:34.873Z,101.10
2023-04-03T01:08:34.870Z,101.94
2023-04-03T01:09:34.920Z,101.15
2023-04-03T01:10:37.046Z,101.75
2023-04-03T01:11:35.019Z,100.17
2023-04-03T01:12:35.219Z,101.34
2023-04-03T01:13:35.053Z,101.73
2023-04-03T01:14:35.103Z,102.06
2023-04-03T01:15:35.109Z,101.56
2023-04-03T01:16:35.276Z,100.77
2023-04-03T01:17:35.173Z,102.41
2023-04-03T01:18:35.230Z,102.88
2023-04-03T01:19:35.251Z,101.60
2023-04-03T01:20:35.566Z,100.65
2023-04-03T01:21:35.237Z,103.77
2023-04-03T01:22:35.378Z,99.59
2023-04-03T01:23:35.372Z,102.68
2023-04-03T01:24:35.371Z,101.66
2023-04-03T01:25:35.407Z,99.15
2023-04-03T01:26:35.433Z,99.25
2023-04-03T01:27:35.485Z,99.48
2023-04-03T01:28:35.546Z,97.97
2023-04-03T01:29:35.514Z,103.02
2023-04-03T01:30:35.823Z,100.79
2023-04-03T01:31:35.625Z,102.55
2023-04-03T01:32:35.638Z,101.80
2023-04-03T01:33:35.625Z,100.83
2023-04-03T01:34:35.675Z,99.27
2023-04-03T01:35:35.714Z,101.27
2023-04-03T01:36:35.742Z,102.04
2023-04-03T01:37:35.740Z,101.44
2023-04-03T01:38:35.774Z,97.78
2023-04-03T01:39:35.796Z,98.70
2023-04-03T01:40:35.977Z,96.23
2023-04-03T01:41:35.946Z,101.10
2023-04-03T01:42:35.918Z,97.49
2023-04-03T01:43:35.935Z,98.84
2023-04-03T01:44:35.913Z,99.85
2023-04-03T01:45:36.021Z,99.20
2023-04-03T01:46:36.028Z,101.44
2023-04-03T01:47:36.398Z,97.76
2023-04-03T01:48:35.996Z,95.94
2023-04-03T01:49:36.099Z,101.98
2023-04-03T01:50:36.214Z,96.67
2023-04-03T01:51:36.160Z,99.67
2023-04-03T01:52:36.207Z,99.76
2023-04-03T01:53:36.229Z,97.69
2023-04-03T01:54:36.237Z,100.53
2023-04-03T01:55:36.438Z,98.66
2023-04-03T01:56:36.311Z,99.17
2023-04-03T01:57:36.403Z,98.11
2023-04-03T01:58:36.368Z,99.54
2023-04-03T01:59:36.943Z,98.63
2023-04-03T02:00:36.632Z,97.29
2023-04-03T02:01:36.506Z,97.86
2023-04-03T02:02:36.481Z,97.52
2023-04-03T02:03:36.531Z,100.14
2023-04-03T02:04:36.519Z,98.80
2023-04-03T02:05:36.930Z,97.06
2023-04-03T02:06:36.606Z,97.10
2023-04-03T02:07:36.631Z,97.97
2023-04-03T02:08:36.644Z,98.74
2023-04-03T02:09:36.711Z,98.66
2023-04-03T02:10:36.862Z,96.73
2023-04-03T02:11:36.855Z,99.65
2023-04-03T02:12:36.861Z,101.47
2023-04-03T02:13:36.812Z,99.22
2023-04-03T02:14:36.933Z,98.11
2023-04-03T02:15:36.877Z,98.07
2023-04-03T02:16:37.015Z,97.35
2023-04-03T02:17:38.037Z,99.54
2023-04-03T02:18:36.962Z,99.85
2023-04-03T02:19:37.417Z,98.58
2023-04-03T02:20:37.160Z,99.22
2023-04-03T02:21:37.079Z,98.38
2023-04-03T02:22:37.102Z,98.54
2023-04-03T02:23:37.158Z,97.53
2023-04-03T02:24:37.135Z,99.20
2023-04-03T02:25:38.748Z,98.60
2023-04-03T02:26:37.202Z,94.93
2023-04-03T02:27:37.224Z,97.06
2023-04-03T02:28:37.269Z,96.73
2023-04-03T02:29:37.280Z,95.04
2023-04-03T02:30:37.546Z,102.29
2023-04-03T02:31:37.336Z,97.00
2023-04-03T02:32:37.431Z,98.63
2023-04-03T02:33:37.422Z,99.02
2023-04-03T02:34:37.490Z,95.85
2023-04-03T02:35:37.508Z,96.70
2023-04-03T02:36:37.629Z,95.61
2023-04-03T02:37:37.544Z,98.77
2023-04-03T02:38:37.620Z,99.46
2023-04-03T02:39:37.627Z,97.53
2023-04-03T02:40:37.827Z,98.25
2023-04-03T02:41:37.668Z,95.22
2023-04-03T02:42:37.721Z,96.51
2023-04-03T02:43:37.731Z,101.21
2023-04-03T02:44:37.784Z,98.08
2023-04-03T02:45:37.805Z,95.99
2023-04-03T02:46:37.933Z,97.90
2023-04-03T02:47:37.895Z,97.02
2023-04-03T02:48:37.934Z,96.69
2023-04-03T02:49:37.921Z,97.16
2023-04-03T02:50:38.248Z,97.87
2023-04-03T02:51:38.050Z,96.58
2023-04-03T02:52:38.006Z,95.19
2023-04-03T02:53:38.054Z,96.99
2023-04-03T02:54:38.128Z,99.49
2023-04-03T02:55:38.128Z,97.81
2023-04-03T02:56:38.157Z,99.10
2023-04-03T02:57:38.187Z,97.06
2023-04-03T02:58:38.214Z,96.58
2023-04-03T02:59:38.280Z,96.22
2023-04-03T03:00:38.603Z,94.89
2023-04-03T03:01:38.479Z,96.22
2023-04-03T03:02:38.566Z,94.71
2023-04-03T03:03:38.392Z,95.48
2023-04-03T03:04:38.438Z,99.27
2023-04-03T03:05:38.460Z,95.89
2023-04-03T03:06:38.560Z,96.43
2023-04-03T03:07:38.526Z,97.50
2023-04-03T03:08:38.543Z,95.65
2023-04-03T03:09:38.580Z,95.23
2023-04-03T03:10:39.001Z,96.26
2023-04-03T03:11:38.661Z,97.03
2023-04-03T03:12:38.653Z,97.48
2023-04-03T03:13:38.707Z,94.16
2023-04-03T03:14:38.729Z,93.97
2023-04-03T03:15:38.820Z,95.28
2023-04-03T03:16:38.829Z,96.71
2023-04-03T03:17:38.886Z,93.49
2023-04-03T03:18:38.822Z,95.20
2023-04-03T03:19:38.929Z,95.48
2023-04-03T03:20:39.017Z,94.28
2023-04-03T03:21:38.972Z,96.08
2023-04-03T03:22:39.026Z,97.51
2023-04-03T03:23:39.022Z,93.45
2023-04-03T03:24:39.054Z,92.73
2023-04-03T03:25:39.343Z,93.59
2023-04-03T03:26:39.111Z,92.09
2023-04-03T03:27:39.115Z,95.23
2023-04-03T03:28:39.176Z,93.24
2023-04-03T03:29:39.170Z,93.84
2023-04-03T03:30:39.236Z,93.71
2023-04-03T03:31:39.326Z,94.84
2023-04-03T03:32:39.328Z,95.56
2023-04-03T03:33:39.324Z,94.12
2023-04-03T03:34:39.364Z,96.09
2023-04-03T03:35:39.592Z,96.28
2023-04-03T03:36:39.377Z,97.04
2023-04-03T03:37:39.480Z,96.10
2023-04-03T03:38:39.434Z,91.30
2023-04-03T03:39:39.480Z,95.18
2023-04-03T03:40:39.514Z,92.44
2023-04-03T03:41:39.561Z,96.40
2023-04-03T03:42:39.596Z,94.08
2023-04-03T03:43:39.610Z,95.95
2023-04-03T03:44:39.649Z,95.06
2023-04-03T03:45:39.787Z,94.28
2023-04-03T03:46:39.799Z,95.28
2023-04-03T03:47:39.810Z,94.14
2023-04-03T03:48:39.739Z,96.48
2023-04-03T03:49:39.917Z,96.57
2023-04-03T03:50:39.867Z,94.41
2023-04-03T03:51:39.864Z,93.62
2023-04-03T03:52:39.910Z,95.97
2023-04-03T03:53:39.956Z,93.76
2023-04-03T03:54:39.964Z,98.18
2023-04-03T03:55:40.048Z,95.56
2023-04-03T03:56:40.021Z,94.18
2023-04-03T03:57:40.059Z,93.42
2023-04-03T03:58:40.100Z,93.01
2023-04-03T03:59:40.149Z,95.49
2023-04-03T04:00:40.207Z,94.17
2023-04-03T04:01:40.258Z,96.24
2023-04-03T04:02:40.379Z,95.81
2023-04-03T04:03:40.401Z,92.44
2023-04-03T04:04:40.437Z,91.34
2023-04-03T04:05:40.482Z,92.25
2023-04-03T04:06:40.411Z,90.56
2023-04-03T04:07:40.419Z,87.03
2023-04-03T04:08:40.978Z,85.04
2023-04-03T04:09:40.467Z,81.08
2023-04-03T04:10:41.058Z,76.07
2023-04-03T04:11:40.547Z,70.71
2023-04-03T04:12:40.572Z,64.37
2023-04-03T04:13:40.614Z,62.51
2023-04-03T04:14:40.658Z,57.51
2023-04-03T04:15:40.823Z,54.75
2023-04-03T04:16:40.754Z,49.90
2023-04-03T04:17:40.777Z,46.51
2023-04-03T04:18:40.767Z,47.15
2023-04-03T04:19:40.822Z,43.14
2023-04-03T04:20:40.864Z,36.36
2023-04-03T04:21:40.899Z,33.45
2023-04-03T04:22:40.973Z,25.98
2023-04-03T04:23:40.976Z,25.00
2023-04-03T04:24:41.028Z,25.00
2023-04-03T04:25:41.984Z,25.00
2023-04-03T04:26:41.165Z,27.43
2023-04-03T04:27:41.145Z,25.30
2023-04-03T04:28:41.175Z,29.53
2023-04-03T04:29:41.230Z,27.25
2023-04-03T04:30:41.250Z,24.32
2023-04-03T04:31:41.276Z,25.65
2023-04-03T04:32:41.357Z,26.73
2023-04-03T04:33:41.348Z,25.00
2023-04-03T04:34:41.406Z,26.55
2023-04-03T04:35:41.684Z,31.75
2023-04-03T04:36:41.605Z,34.80
2023-04-03T04:37:41.480Z,32.52
2023-04-03T04:38:41.514Z,32.48
2023-04-03T04:39:41.573Z,35.17
2023-04-03T04:40:41.640Z,35.63
2023-04-03T04:41:41.628Z,35.36
2023-04-03T04:42:41.697Z,41.26
2023-04-03T04:43:41.693Z,40.94
2023-04-03T04:44:41.770Z,41.86
2023-04-03T04:45:41.775Z,41.31
2023-04-03T04:46:41.800Z,42.70
2023-04-03T04:47:41.825Z,46.49
2023-04-03T04:48:41.862Z,48.38
2023-04-03T04:49:41.872Z,49.58
2023-04-03T04:50:41.874Z,48.83
2023-04-03T04:51:51.553Z,51.93
2023-04-03T04:52:42.897Z,52.22
2023-04-03T04:53:41.932Z,52.23
2023-04-03T04:54:41.991Z,53.39
2023-04-03T04:55:41.911Z,55.67
2023-04-03T04:56:41.850Z,60.13
2023-04-03T04:57:41.868Z,63.55
2023-04-03T04:58:41.863Z,62.32
2023-04-03T04:59:41.861Z,64.02
2023-04-03T05:00:41.835Z,71.50
2023-04-03T05:01:41.852Z,69.48
2023-04-03T05:02:41.918Z,68.94
2023-04-03T05:03:41.866Z,71.31
2023-04-03T05:04:41.845Z,71.89
2023-04-03T05:05:41.809Z,72.56
2023-04-03T05:06:41.827Z,74.27
2023-04-03T05:07:41.833Z,73.98
2023-04-03T05:08:41.792Z,77.34
2023-04-03T05:09:41.801Z,73.85
2023-04-03T05:10:41.907Z,76.35
2023-04-03T05:11:41.889Z,78.47
2023-04-03T05:12:41.925Z,81.16
2023-04-03T05:13:41.939Z,81.73
2023-04-03T05:14:41.945Z,82.82
2023-04-03T05:15:42.002Z,83.83
2023-04-03T05:16:42.012Z,79.16
2023-04-03T05:17:42.051Z,80.73
2023-04-03T05:18:42.048Z,82.15
2023-04-03T05:19:42.112Z,86.75
2023-04-03T05:20:42.122Z,86.58
2023-04-03T05:21:42.134Z,87.38
2023-04-03T05:22:42.134Z,87.60
2023-04-03T05:23:42.206Z,88.41
2023-04-03T05:24:42.219Z,88.22
2023-04-03T05:25:42.429Z,86.65
2023-04-03T05:26:42.992Z,88.55
2023-04-03T05:27:42.330Z,92.87
2023-04-03T05:28:42.378Z,88.44
2023-04-03T05:29:43.868Z,90.23
2023-04-03T05:30:42.617Z,93.64
2023-04-03T05:31:42.820Z,91.97
2023-04-03T05:32:42.613Z,90.48
2023-04-03T05:33:42.631Z,93.10
2023-04-03T05:34:42.646Z,92.85
2023-04-03T05:35:42.893Z,95.17
2023-04-03T05:36:42.702Z,90.81
2023-04-03T05:37:42.704Z,93.61
2023-04-03T05:38:42.786Z,95.45
2023-04-03T05:39:43.479Z,98.15
2023-04-03T05:40:42.812Z,96.62
2023-04-03T05:41:42.840Z,97.82
2023-04-03T05:42:42.883Z,97.06
2023-04-03T05:43:42.899Z,98.31
2023-04-03T05:44:42.888Z,95.74
2023-04-03T05:45:44.123Z,97.27
2023-04-03T05:46:42.983Z,96.46
2023-04-03T05:47:43.071Z,98.23
2023-04-03T05:48:43.032Z,97.27
2023-04-03T05:49:43.073Z,97.53
2023-04-03T05:50:44.075Z,97.49
2023-04-03T05:51:43.198Z,101.21
2023-04-03T05:52:43.969Z,97.39
2023-04-03T05:53:43.176Z,99.92
2023-04-03T05:54:43.232Z,100.87
2023-04-03T05:55:43.257Z,99.72
2023-04-03T05:56:43.289Z,98.06
2023-04-03T05:57:43.371Z,100.14
2023-04-03T05:58:43.399Z,100.81
2023-04-03T05:59:43.450Z,100.66
2023-04-03T06:00:43.468Z,99.48
2023-04-03T06:01:43.459Z,102.23
2023-04-03T06:02:43.568Z,101.49
2023-04-03T06:03:43.746Z,103.44
2023-04-03T06:04:43.633Z,102.27
2023-04-03T06:05:43.620Z,102.04
2023-04-03T06:06:43.626Z,100.77
2023-04-03T06:07:43.642Z,102.20
2023-04-03T06:08:43.689Z,101.54
2023-04-03T06:09:43.754Z,104.37
2023-04-03T06:10:43.758Z,104.56
2023-04-03T06:11:43.732Z,101.50
2023-04-03T06:12:43.750Z,102.45
2023-04-03T06:13:44.461Z,104.73
2023-04-03T06:14:43.836Z,107.13
2023-04-03T06:15:43.819Z,103.28
2023-04-03T06:16:43.901Z,103.83
2023-04-03T06:17:43.933Z,106.54
2023-04-03T06:18:43.918Z,102.27
2023-04-03T06:19:43.960Z,103.44
2023-04-03T06:20:43.965Z,104.01
2023-04-03T06:21:44.056Z,104.95
2023-04-03T06:22:44.462Z,103.07
2023-04-03T06:23:44.031Z,104.99
2023-04-03T06:24:44.035Z,106.45
2023-04-03T06:25:44.061Z,104.36
2023-04-03T06:26:44.104Z,106.39
2023-04-03T06:27:44.106Z,102.91
2023-04-03T06:28:44.081Z,104.82
2023-04-03T06:29:44.232Z,103.62
2023-04-03T06:30:44.104Z,106.42
2023-04-03T06:31:44.178Z,106.21
2023-04-03T06:32:44.198Z,106.95
2023-04-03T06:33:44.211Z,105.24
2023-04-03T06:34:44.198Z,106.64
2023-04-03T06:35:44.264Z,106.25
2023-04-03T06:36:44.259Z,105.41
2023-04-03T06:37:44.225Z,104.05
2023-04-03T06:38:44.247Z,105.37
2023-04-03T06:39:44.252Z,105.92
2023-04-03T06:40:45.023Z,106.25
2023-04-03T06:41:44.279Z,108.97
2023-04-03T06:42:44.315Z,103.21
2023-04-03T06:43:44.535Z,105.42
2023-04-03T06:44:44.793Z,106.48
2023-04-03T06:45:44.397Z,106.00
2023-04-03T06:46:44.388Z,108.30
2023-04-03T06:47:44.443Z,108.21
2023-04-03T06:48:44.631Z,106.19
2023-04-03T06:49:44.457Z,105.05
2023-04-03T06:50:44.470Z,104.86
2023-04-03T06:52:21.001Z,25.00
2023-04-03T06:53:21.012Z,25.00
2023-04-03T06:54:20.994Z,25.00
2023-04-03T06:55:21.023Z,25.00
2023-04-03T06:56:20.968Z,25.00
2023-04-03T06:57:20.969Z,27.73
2023-04-03T06:58:21.896Z,27.35
2023-04-03T06:59:20.924Z,28.30
2023-04-03T07:00:20.938Z,26.29
2023-04-03T07:01:21.022Z,28.27
2023-04-03T07:02:20.981Z,26.17
2023-04-03T07:03:20.910Z,28.20
2023-04-03T07:04:20.919Z,27.83
2023-04-03T07:05:20.931Z,29.80
2023-04-03T07:06:20.929Z,26.14
2023-04-03T07:07:20.881Z,29.83
2023-04-03T07:08:20.877Z,31.73
2023-04-03T07:09:20.915Z,26.65
2023-04-03T07:10:20.971Z,25.82
2023-04-03T07:11:20.951Z,25.00
2023-04-03T07:12:20.958Z,27.35
2023-04-03T07:13:20.941Z,26.66
2023-04-03T07:14:20.960Z,29.36
2023-04-03T07:15:20.991Z,29.23
2023-04-03T07:16:21.336Z,30.24
2023-04-03T07:17:21.065Z,26.08
2023-04-03T07:18:21.054Z,29.92
2023-04-03T07:19:21.085Z,26.74
2023-04-03T07:20:21.169Z,31.02
2023-04-03T07:21:21.335Z,27.97
2023-04-03T07:22:21.182Z,29.48
2023-04-03T07:23:21.251Z,32.39
2023-04-03T07:24:21.258Z,31.67
2023-04-03T07:25:21.327Z,31.88
2023-04-03T07:26:21.319Z,33.12
2023-04-03T07:27:21.334Z,30.28
2023-04-03T07:28:21.375Z,32.19
2023-04-03T07:29:21.405Z,30.84
2023-04-03T07:30:21.407Z,32.79
2023-04-03T07:31:21.476Z,32.71
2023-04-03T07:32:21.489Z,32.58
2023-04-03T07:33:21.590Z,32.19
2023-04-03T07:34:21.517Z,30.15
2023-04-03T07:35:21.576Z,30.08
2023-04-03T07:36:21.726Z,32.53
2023-04-03T07:37:21.642Z,36.83
2023-04-03T07:38:22.243Z,32.12
2023-04-03T07:39:21.945Z,36.27
2023-04-03T07:40:21.795Z,33.85
2023-04-03T07:41:21.817Z,33.11
2023-04-03T07:42:21.861Z,33.15
2023-04-03T07:43:21.868Z,30.53
2023-04-03T07:44:21.870Z,32.95
2023-04-03T07:45:21.919Z,31.27
2023-04-03T07:46:22.323Z,31.34
2023-04-03T07:47:22.048Z,30.32
2023-04-03T07:48:22.064Z,32.65
2023-04-03T07:49:22.045Z,27.51
2023-04-03T07:50:22.121Z,30.38
2023-04-03T07:51:22.134Z,29.73
2023-04-03T07:52:22.215Z,31.83
2023-04-03T07:53:22.186Z,29.37
2023-04-03T07:54:22.253Z,29.77
2023-04-03T07:55:22.245Z,31.05
2023-04-03T07:56:22.296Z,32.60
2023-04-03T07:57:22.344Z,28.11
2023-04-03T07:58:22.379Z,34.29
2023-04-03T07:59:22.409Z,31.06
2023-04-03T08:00:22.470Z,32.39
2023-04-03T08:01:22.427Z,33.94
2023-04-03T08:02:22.531Z,32.68
2023-04-03T08:03:22.723Z,33.15
2023-04-03T08:04:23.375Z,34.79
2023-04-03T08:05:22.634Z,33.73
2023-04-03T08:06:33.037Z,35.42
2023-04-03T08:07:23.632Z,34.55
2023-04-03T08:08:22.624Z,32.57
2023-04-03T08:09:22.597Z,34.44
2023-04-03T08:10:22.676Z,34.48
2023-04-03T08:11:22.612Z,30.93
2023-04-03T08:12:22.598Z,33.87
2023-04-03T08:13:22.586Z,33.55
2023-04-03T08:14:22.605Z,33.14
2023-04-03T08:15:22.581Z,33.65
2023-04-03T08:16:22.591Z,34.38
2023-04-03T08:17:22.538Z,34.14
2023-04-03T08:18:22.546Z,34.33
2023-04-03T08:19:26.456Z,34.31
2023-04-03T08:20:22.650Z,34.44
2023-04-03T08:21:22.534Z,34.59
2023-04-03T08:22:22.498Z,35.26
2023-04-03T08:23:22.544Z,35.69
2023-04-03T08:24:22.536Z,33.85
2023-04-03T08:25:22.764Z,35.41
2023-04-03T08:26:22.551Z,36.01
2023-04-03T08:27:22.464Z,36.29
2023-04-03T08:28:22.428Z,34.32
2023-04-03T08:29:22.490Z,34.03
2023-04-03T08:30:22.491Z,37.09
2023-04-03T08:31:22.633Z,31.65
2023-04-03T08:32:22.454Z,37.61
2023-04-03T08:33:22.400Z,36.54
2023-04-03T08:34:22.465Z,36.84
2023-04-03T08:35:22.432Z,35.06
2023-04-03T08:36:22.505Z,38.34
2023-04-03T08:37:22.462Z,34.74
2023-04-03T08:38:22.450Z,36.19
2023-04-03T08:39:22.426Z,35.58
2023-04-03T08:40:22.408Z,36.75
2023-04-03T08:41:22.379Z,37.02
2023-04-03T08:42:22.484Z,36.76
2023-04-03T08:43:22.486Z,38.49
2023-04-03T08:44:22.526Z,33.11
2023-04-03T08:45:22.643Z,36.30
2023-04-03T08:46:22.663Z,31.43
2023-04-03T08:47:22.777Z,34.13
2023-04-03T08:48:22.822Z,39.04
2023-04-03T08:49:22.835Z,36.88
2023-04-03T08:50:22.733Z,34.04
2023-04-03T08:51:22.801Z,41.71
2023-04-03T08:52:22.859Z,36.10
2023-04-03T08:53:22.879Z,37.14
2023-04-03T08:54:22.855Z,37.21
2023-04-03T08:55:22.892Z,35.98
2023-04-03T08:56:22.945Z,37.52
2023-04-03T08:57:22.971Z,36.96
2023-04-03T08:58:23.005Z,32.79
2023-04-03T08:59:23.067Z,37.74
2023-04-03T09:00:23.118Z,35.75
2023-04-03T09:01:23.357Z,36.32
2023-04-03T09:02:23.182Z,37.18
2023-04-03T09:03:23.316Z,35.57
2023-04-03T09:04:23.324Z,35.73
2023-04-03T09:05:24.173Z,38.90
2023-04-03T09:06:23.357Z,38.13
2023-04-03T09:07:23.360Z,36.14
2023-04-03T09:08:23.435Z,34.44
2023-04-03T09:09:23.434Z,36.38
2023-04-03T09:10:23.483Z,38.24
2023-04-03T09:11:23.531Z,38.58
2023-04-03T09:12:23.597Z,38.38
2023-04-03T09:13:23.599Z,38.16
2023-04-03T09:14:23.613Z,36.75
2023-04-03T09:15:35.396Z,36.09
2023-04-03T09:16:24.718Z,36.34
2023-04-03T09:17:23.895Z,36.88
2023-04-03T09:18:23.664Z,38.24
2023-04-03T09:19:23.671Z,37.67
2023-04-03T09:20:23.653Z,39.52
2023-04-03T09:21:23.622Z,38.30
2023-04-03T09:22:23.671Z,38.74
2023-04-03T09:23:23.635Z,36.03
2023-04-03T09:24:23.622Z,37.72
2023-04-03T09:25:23.609Z,39.01
2023-04-03T09:26:23.595Z,39.67
2023-04-03T09:27:23.772Z,39.01
2023-04-03T09:28:23.607Z,42.06
2023-04-03T09:29:23.683Z,40.48
2023-04-03T09:30:23.685Z,40.91
2023-04-03T09:31:23.783Z,35.13
2023-04-03T09:32:24.264Z,41.17
2023-04-03T09:33:23.985Z,39.08
2023-04-03T09:34:23.854Z,39.04
2023-04-03T09:35:29.898Z,39.58
2023-04-03T09:36:25.782Z,39.70
2023-04-03T09:37:24.786Z,39.95
2023-04-03T09:38:23.922Z,39.52
2023-04-03T09:39:23.896Z,41.75
2023-04-03T09:40:23.897Z,40.86
2023-04-03T09:41:23.846Z,40.83
2023-04-03T09:42:23.868Z,39.70
2023-04-03T09:43:23.864Z,38.22
2023-04-03T09:44:23.845Z,38.23
2023-04-03T09:45:23.826Z,39.48
2023-04-03T09:46:23.832Z,38.62
2023-04-03T09:47:23.828Z,42.43
2023-04-03T09:48:23.928Z,38.34
2023-04-03T09:49:24.016Z,35.75
2023-04-03T09:50:23.980Z,40.67
2023-04-03T09:51:24.005Z,40.36
2023-04-03T09:52:24.022Z,37.90
2023-04-03T09:53:24.148Z,39.75
2023-04-03T09:54:24.093Z,36.97
2023-04-03T09:55:24.098Z,38.93
2023-04-03T09:56:24.224Z,38.86
2023-04-03T09:57:24.263Z,40.00
2023-04-03T09:58:24.291Z,39.66
2023-04-03T09:59:24.294Z,38.73
2023-04-03T10:00:24.332Z,35.85
2023-04-03T10:01:24.414Z,38.10
2023-04-03T10:02:24.389Z,37.79
2023-04-03T10:03:24.417Z,39.73
2023-04-03T10:04:24.481Z,41.76
2023-04-03T10:05:24.557Z,39.08
2023-04-03T10:06:24.795Z,42.10
2023-04-03T10:07:24.549Z,41.04
2023-04-03T10:08:24.597Z,37.91
2023-04-03T10:09:24.613Z,40.33
2023-04-03T10:10:24.701Z,42.49
2023-04-03T10:11:24.699Z,38.29
2023-04-03T10:12:24.731Z,39.76
2023-04-03T10:13:24.788Z,41.19
2023-04-03T10:14:24.746Z,40.43
2023-04-03T10:15:24.810Z,38.32
2023-04-03T10:16:24.905Z,37.98
2023-04-03T10:17:24.952Z,37.72
2023-04-03T10:18:25.122Z,38.94
2023-04-03T10:19:24.973Z,37.04
2023-04-03T10:20:25.035Z,36.50
2023-04-03T10:21:27.767Z,40.43
2023-04-03T10:22:25.062Z,40.54
2023-04-03T10:23:25.025Z,38.85
2023-04-03T10:24:25.019Z,37.46
2023-04-03T10:25:25.081Z,37.54
2023-04-03T10:26:25.029Z,39.87
2023-04-03T10:27:25.043Z,40.43
2023-04-03T10:28:24.996Z,40.54
2023-04-03T10:29:25.015Z,40.02
2023-04-03T10:30:25.326Z,38.36
2023-04-03T10:31:25.804Z,39.21
2023-04-03T10:32:25.020Z,41.03
2023-04-03T10:33:24.976Z,40.20
2023-04-03T10:34:24.934Z,44.09
2023-04-03T10:35:24.944Z,36.91
2023-04-03T10:36:24.995Z,40.02
2023-04-03T10:37:25.040Z,40.24
2023-04-03T10:38:24.922Z,38.34
2023-04-03T10:39:24.910Z,38.00
2023-04-03T10:40:24.924Z,39.10
2023-04-03T10:41:24.870Z,39.46
2023-04-03T10:42:24.901Z,41.18
2023-04-03T10:43:24.898Z,39.31
2023-04-03T10:44:24.892Z,40.07
2023-04-03T10:45:25.834Z,38.03
2023-04-03T10:46:24.892Z,38.67
2023-04-03T10:47:24.908Z,37.62
2023-04-03T10:48:24.888Z,38.85
2023-04-03T10:49:24.826Z,40.44
2023-04-03T10:50:24.846Z,36.66
2023-04-03T10:51:24.841Z,42.41
2023-04-03T10:52:24.841Z,39.40
2023-04-03T10:53:24.880Z,40.84
2023-04-03T10:54:24.815Z,38.37
2023-04-03T10:55:24.819Z,37.91
2023-04-03T10:56:24.763Z,40.56
2023-04-03T10:57:24.877Z,39.31
2023-04-03T10:58:24.796Z,38.53
2023-04-03T10:59:24.795Z,37.93
2023-04-03T11:00:24.779Z,40.47
2023-04-03T11:01:24.798Z,36.06
2023-04-03T11:02:24.837Z,39.70
2023-04-03T11:03:24.841Z,38.44
2023-04-03T11:04:24.782Z,36.47
2023-04-03T11:05:24.749Z,40.89
2023-04-03T11:06:24.745Z,40.36
2023-04-03T11:07:24.698Z,38.87
2023-04-03T11:08:24.730Z,37.11
2023-04-03T11:09:24.901Z,39.13
2023-04-03T11:10:24.729Z,37.69
2023-04-03T11:11:24.674Z,37.32
2023-04-03T11:12:24.788Z,39.69
2023-04-03T11:13:24.640Z,38.92
2023-04-03T11:14:24.650Z,40.18
2023-04-03T11:15:25.382Z,36.50
2023-04-03T11:16:24.799Z,39.92
2023-04-03T11:17:24.775Z,39.88
2023-04-03T11:18:24.719Z,39.37
2023-04-03T11:19:24.737Z,41.54
2023-04-03T11:20:24.736Z,40.68
2023-04-03T11:21:24.801Z,38.27
2023-04-03T11:22:24.798Z,40.31
2023-04-03T11:23:25.619Z,40.60
2023-04-03T11:24:24.865Z,42.12
2023-04-03T11:25:24.999Z,38.48
2023-04-03T11:26:24.941Z,37.66
2023-04-03T11:27:24.986Z,37.16
2023-04-03T11:28:25.012Z,39.52
2023-04-03T11:29:34.812Z,40.32
2023-04-03T11:30:25.977Z,40.51
2023-04-03T11:31:25.059Z,41.22
2023-04-03T11:32:25.049Z,41.18
2023-04-03T11:33:25.033Z,43.31
2023-04-03T11:34:25.051Z,44.22
2023-04-03T11:35:25.027Z,40.74
2023-04-03T11:36:30.932Z,43.02
2023-04-03T11:37:25.998Z,43.20
2023-04-03T11:38:24.962Z,43.48
2023-04-03T11:39:24.974Z,43.18
2023-04-03T11:40:24.979Z,44.98
2023-04-03T11:41:25.424Z,39.69
2023-04-03T11:42:25.046Z,45.32
2023-04-03T11:43:24.954Z,43.48
2023-04-03T11:44:24.948Z,44.95
2023-04-03T11:45:24.912Z,45.49
2023-04-03T11:46:24.923Z,43.48
2023-04-03T11:47:24.944Z,45.10
2023-04-03T11:48:25.394Z,43.54
2023-04-03T11:49:24.888Z,40.06
2023-04-03T11:50:24.860Z,42.24
2023-04-03T11:51:25.357Z,43.69
2023-04-03T11:52:24.930Z,44.37
2023-04-03T11:53:24.918Z,45.07
2023-04-03T11:54:26.492Z,44.47
2023-04-03T11:55:25.951Z,44.57
2023-04-03T11:56:24.990Z,44.67
2023-04-03T11:57:25.046Z,45.45
2023-04-03T11:58:24.944Z,45.69
2023-04-03T11:59:24.902Z,45.60
2023-04-03T12:00:24.907Z,43.85
2023-04-03T12:01:25.784Z,44.20
2023-04-03T12:02:24.979Z,45.44
2023-04-03T12:03:25.110Z,46.80
2023-04-03T12:04:25.150Z,47.84
2023-04-03T12:05:24.899Z,44.17
2023-04-03T12:06:24.850Z,45.30
2023-04-03T12:07:24.855Z,42.70
2023-04-03T12:08:24.971Z,42.96
2023-04-03T12:09:25.033Z,45.01
2023-04-03T12:10:32.171Z,48.35
2023-04-03T12:11:25.898Z,48.38
2023-04-03T12:12:24.885Z,46.37
2023-04-03T12:13:25.005Z,45.34
2023-04-03T12:14:25.012Z,47.07
2023-04-03T12:15:24.971Z,45.45
2023-04-03T12:16:24.936Z,46.52
2023-04-03T12:17:24.867Z,46.03
2023-04-03T12:18:24.903Z,47.43
2023-04-03T12:19:35.508Z,43.88
2023-04-03T12:20:25.881Z,44.06
2023-04-03T12:21:24.864Z,44.68
2023-04-03T12:22:24.857Z,45.31
2023-04-03T12:23:25.319Z,44.45
2023-04-03T12:24:24.886Z,48.53
2023-04-03T12:25:24.879Z,47.21
2023-04-03T12:26:25.386Z,47.27
2023-04-03T12:27:24.803Z,48.00
2023-04-03T12:28:24.800Z,46.77
2023-04-03T12:29:24.905Z,45.70
2023-04-03T12:30:25.840Z,46.90
2023-04-03T12:31:24.793Z,50.56
2023-04-03T12:32:25.867Z,48.30
2023-04-03T12:33:24.890Z,48.13
2023-04-03T12:34:24.798Z,45.99
2023-04-03T12:35:24.802Z,46.67
2023-04-03T12:36:24.811Z,48.01
2023-04-03T12:37:24.842Z,46.54
2023-04-03T12:38:24.768Z,47.73
2023-04-03T12:39:24.762Z,45.99
2023-04-03T12:40:24.774Z,50.51
2023-04-03T12:41:24.784Z,47.29
2023-04-03T12:42:24.676Z,48.27
2023-04-03T12:43:24.779Z,50.32
2023-04-03T12:44:24.691Z,44.92
2023-04-03T12:45:24.890Z,47.12
2023-04-03T12:46:24.734Z,43.54
2023-04-03T12:47:24.785Z,46.09
2023-04-03T12:48:24.709Z,43.64